createdAt,value
2022-10-29T00:00:56.590Z,14.37
2022-10-29T00:03:24.522Z,14.40
2022-10-29T00:05:58.441Z,14.44
2022-10-29T00:08:25.378Z,14.44
2022-10-29T00:10:52.258Z,14.43
2022-10-29T00:13:19.492Z,14.35
2022-10-29T00:15:46.176Z,14.28
2022-10-29T00:18:12.944Z,14.21
2022-10-29T00:20:39.609Z,14.18
2022-10-29T00:23:06.254Z,14.10
2022-10-29T00:25:32.950Z,13.85
2022-10-29T00:27:59.644Z,13.70
2022-10-29T00:30:26.443Z,13.55
2022-10-29T00:32:53.273Z,13.33
2022-10-29T00:35:20.053Z,13.19
2022-10-29T00:37:46.702Z,13.07
2022-10-29T00:40:13.644Z,13.04
2022-10-29T00:42:40.359Z,13.02
2022-10-29T00:45:14.639Z,13.05
2022-10-29T00:47:41.540Z,13.13
2022-10-29T00:50:12.970Z,13.18
2022-10-29T00:52:46.322Z,13.16
2022-10-29T00:55:15.883Z,13.17
2022-10-29T00:57:48.767Z,13.11
2022-10-29T01:00:17.426Z,13.02
2022-10-29T01:02:45.664Z,12.98
2022-10-29T01:05:16.805Z,13.04
2022-10-29T01:07:43.686Z,13.14
2022-10-29T01:10:11.903Z,13.22
2022-10-29T01:12:59.626Z,13.24
2022-10-29T01:15:48.261Z,13.17
2022-10-29T01:18:22.897Z,13.00
2022-10-29T01:20:55.509Z,12.89
2022-10-29T01:23:28.333Z,12.76
2022-10-29T01:26:04.296Z,12.67
2022-10-29T01:28:52.444Z,12.72
2022-10-29T01:31:23.884Z,12.63
2022-10-29T01:34:25.272Z,12.51
2022-10-29T01:37:03.528Z,12.44
2022-10-29T01:39:39.355Z,12.48
2022-10-29T01:42:23.360Z,12.52
2022-10-29T01:45:19.102Z,12.51
2022-10-29T01:47:57.076Z,12.45
2022-10-29T01:50:25.726Z,12.36
2022-10-29T01:52:55.176Z,12.34
2022-10-29T01:55:30.751Z,12.29
2022-10-29T01:57:57.768Z,12.26
2022-10-29T02:00:25.648Z,12.18
2022-10-29T02:03:33.815Z,12.18
2022-10-29T02:06:08.545Z,12.09
2022-10-29T02:08:41.301Z,12.00
2022-10-29T02:11:16.150Z,11.89
2022-10-29T02:14:02.217Z,11.81
2022-10-29T02:16:30.015Z,11.74
2022-10-29T02:18:58.131Z,11.82
2022-10-29T02:21:24.905Z,11.83
2022-10-29T02:23:51.940Z,11.86
2022-10-29T02:26:18.666Z,11.85
2022-10-29T02:28:45.332Z,11.80
2022-10-29T02:31:12.037Z,11.78
2022-10-29T02:33:38.923Z,11.81
2022-10-29T02:36:06.015Z,11.89
2022-10-29T02:38:32.647Z,11.91
2022-10-29T02:40:59.373Z,11.96
2022-10-29T02:43:26.042Z,12.01
2022-10-29T02:46:12.479Z,12.04
2022-10-29T02:48:39.121Z,12.02
2022-10-29T02:51:06.127Z,12.04
2022-10-29T02:53:32.782Z,12.04
2022-10-29T02:55:59.595Z,12.15
2022-10-29T02:58:26.339Z,12.35
2022-10-29T03:00:53.271Z,12.41
2022-10-29T03:03:20.326Z,12.38
2022-10-29T03:05:49.096Z,12.32
2022-10-29T03:08:16.428Z,12.19
2022-10-29T03:10:43.289Z,12.19
2022-10-29T03:13:10.654Z,12.18
2022-10-29T03:15:37.858Z,12.15
2022-10-29T03:18:05.555Z,12.21
2022-10-29T03:20:32.432Z,12.16
2022-10-29T03:22:59.051Z,12.15
2022-10-29T03:25:25.714Z,12.13
2022-10-29T03:27:52.367Z,12.10
2022-10-29T03:30:19.028Z,12.12
2022-10-29T03:32:48.360Z,12.13
2022-10-29T03:35:16.449Z,12.22
2022-10-29T03:37:43.467Z,12.29
2022-10-29T03:40:10.764Z,12.51
2022-10-29T03:42:38.899Z,12.85
2022-10-29T03:45:07.004Z,13.19
2022-10-29T03:47:34.068Z,13.42
2022-10-29T03:50:00.743Z,13.54
2022-10-29T03:52:27.655Z,13.41
2022-10-29T03:54:54.367Z,13.22
2022-10-29T03:57:21.161Z,13.17
2022-10-29T03:59:51.589Z,13.11
2022-10-29T04:02:19.541Z,13.10
2022-10-29T04:04:46.267Z,13.14
2022-10-29T04:07:12.977Z,13.10
2022-10-29T04:09:39.875Z,12.99
2022-10-29T04:12:07.263Z,12.82
2022-10-29T04:14:34.267Z,12.71
2022-10-29T04:17:00.978Z,12.62
2022-10-29T04:19:27.711Z,12.65
2022-10-29T04:30:15.145Z,13.02
2022-10-29T04:32:41.791Z,13.18
2022-10-29T04:35:08.604Z,13.38
2022-10-29T04:37:35.290Z,13.30
2022-10-29T04:40:01.995Z,13.13
2022-10-29T04:42:28.705Z,12.94
2022-10-29T04:44:55.352Z,12.88
2022-10-29T04:47:21.991Z,12.85
2022-10-29T04:49:48.684Z,12.89
2022-10-29T04:52:15.317Z,12.99
2022-10-29T04:54:41.963Z,13.23
2022-10-29T04:57:08.611Z,13.43
2022-10-29T04:59:35.301Z,13.53
2022-10-29T05:02:01.935Z,13.66
2022-10-29T05:04:29.596Z,13.69
2022-10-29T05:06:56.454Z,13.68
2022-10-29T05:09:23.130Z,13.63
2022-10-29T05:11:49.792Z,13.51
2022-10-29T05:14:16.513Z,13.39
2022-10-29T05:16:43.194Z,13.53
2022-10-29T05:19:09.865Z,13.65
2022-10-29T05:21:36.547Z,13.79
2022-10-29T05:24:03.369Z,13.78
2022-10-29T05:26:32.291Z,13.55
2022-10-29T05:28:59.017Z,13.35
2022-10-29T05:31:25.696Z,13.18
2022-10-29T05:33:55.532Z,12.97
2022-10-29T05:36:22.714Z,12.86
2022-10-29T05:38:49.380Z,12.74
2022-10-29T05:41:16.066Z,12.67
2022-10-29T05:43:42.721Z,12.67
2022-10-29T05:46:09.344Z,12.61
2022-10-29T05:48:36.009Z,12.60
2022-10-29T05:51:02.846Z,12.60
2022-10-29T05:53:29.486Z,12.60
2022-10-29T05:55:56.175Z,12.57
2022-10-29T05:58:22.854Z,12.49
2022-10-29T06:00:49.496Z,12.34
2022-10-29T06:03:19.654Z,12.30
2022-10-29T06:05:47.571Z,12.26
2022-10-29T06:08:14.312Z,12.23
2022-10-29T06:10:41.152Z,12.21
2022-10-29T06:13:16.570Z,12.24
2022-10-29T06:15:43.475Z,12.13
2022-10-29T06:18:10.366Z,12.12
2022-10-29T06:20:38.324Z,12.19
2022-10-29T06:23:05.373Z,12.13
2022-10-29T06:25:32.437Z,12.10
2022-10-29T06:28:04.239Z,12.15
2022-10-29T06:30:32.375Z,12.24
2022-10-29T06:32:59.848Z,12.26
2022-10-29T06:35:26.905Z,12.27
2022-10-29T06:37:54.031Z,12.17
2022-10-29T06:40:21.115Z,12.26
2022-10-29T06:42:47.875Z,12.21
2022-10-29T06:45:16.105Z,12.27
2022-10-29T06:47:44.722Z,12.32
2022-10-29T06:50:13.325Z,12.35
2022-10-29T06:52:40.040Z,12.31
2022-10-29T06:55:08.312Z,12.32
2022-10-29T06:57:36.381Z,12.29
2022-10-29T07:00:08.349Z,12.30
2022-10-29T07:02:35.540Z,12.33
2022-10-29T07:05:02.250Z,12.35
2022-10-29T07:07:29.495Z,12.38
2022-10-29T07:09:56.331Z,12.38
2022-10-29T07:12:22.979Z,12.43
2022-10-29T07:14:49.657Z,12.50
2022-10-29T07:17:16.318Z,12.57
2022-10-29T07:19:42.980Z,12.90
2022-10-29T07:22:09.674Z,13.14
2022-10-29T07:24:36.343Z,13.27
2022-10-29T07:27:03.144Z,13.46
2022-10-29T07:29:29.878Z,13.73
2022-10-29T07:31:56.545Z,13.74
2022-10-29T07:34:23.204Z,13.59
2022-10-29T07:36:49.851Z,13.48
2022-10-29T07:39:17.352Z,13.43
2022-10-29T07:41:44.073Z,13.59
2022-10-29T07:44:11.172Z,13.83
2022-10-29T07:46:37.826Z,14.03
2022-10-29T07:49:04.611Z,14.32
2022-10-29T07:51:31.296Z,14.40
2022-10-29T07:53:57.989Z,14.66
2022-10-29T07:56:24.689Z,14.90
2022-10-29T07:58:51.368Z,14.86
2022-10-29T08:01:18.081Z,14.93
2022-10-29T08:03:44.870Z,14.90
2022-10-29T08:06:11.542Z,14.99
2022-10-29T08:08:45.349Z,15.35
2022-10-29T08:11:12.003Z,15.59
2022-10-29T08:13:38.707Z,15.85
2022-10-29T08:16:05.718Z,16.08
2022-10-29T08:18:32.507Z,16.32
2022-10-29T08:20:59.247Z,16.50
2022-10-29T08:23:25.959Z,16.61
2022-10-29T08:25:52.617Z,16.76
2022-10-29T08:28:20.876Z,16.93
2022-10-29T08:30:51.648Z,17.07
2022-10-29T08:33:18.386Z,17.36
2022-10-29T08:35:45.061Z,17.66
2022-10-29T08:38:11.761Z,17.93
2022-10-29T08:41:05.742Z,18.25
2022-10-29T08:43:52.388Z,18.41
2022-10-29T08:46:38.189Z,18.51
2022-10-29T08:49:10.902Z,18.63
2022-10-29T08:51:40.509Z,18.74
2022-10-29T08:57:17.941Z,18.94
2022-10-29T09:00:25.739Z,19.04
2022-10-29T09:03:00.724Z,19.01
2022-10-29T09:05:33.009Z,19.08
2022-10-29T09:08:47.638Z,19.30
2022-10-29T09:11:14.226Z,19.54
2022-10-29T09:14:09.605Z,19.71
2022-10-29T09:17:10.216Z,19.87
2022-10-29T09:20:16.981Z,20.10
2022-10-29T09:22:49.311Z,20.25
2022-10-29T09:25:28.072Z,20.41
2022-10-29T09:28:26.766Z,20.36
2022-10-29T09:31:15.104Z,20.45
2022-10-29T09:33:43.002Z,20.56
2022-10-29T09:36:18.514Z,20.65
2022-10-29T09:39:02.556Z,20.68
2022-10-29T09:41:34.048Z,20.78
2022-10-29T09:44:19.615Z,20.68
2022-10-29T09:47:21.880Z,20.70
2022-10-29T09:50:05.387Z,20.85
2022-10-29T09:52:41.960Z,21.26
2022-10-29T09:55:18.816Z,21.43
2022-10-29T09:57:46.865Z,21.56
2022-10-29T10:00:17.301Z,21.70
2022-10-29T10:03:21.524Z,21.96
2022-10-29T10:06:06.920Z,21.89
2022-10-29T10:08:35.331Z,21.87
2022-10-29T10:11:07.281Z,21.68
2022-10-29T10:13:50.362Z,21.33
2022-10-29T10:16:24.698Z,21.25
2022-10-29T10:18:51.383Z,21.40
2022-10-29T10:21:27.249Z,21.48
2022-10-29T10:23:57.116Z,21.36
2022-10-29T10:26:34.651Z,21.11
2022-10-29T10:29:12.196Z,21.21
2022-10-29T10:31:40.012Z,21.31
2022-10-29T10:34:15.407Z,21.70
2022-10-29T10:36:51.315Z,22.01
2022-10-29T10:39:31.997Z,22.18
2022-10-29T10:42:02.537Z,22.27
2022-10-29T10:44:29.640Z,22.40
2022-10-29T10:47:04.615Z,22.68
2022-10-29T10:49:39.160Z,22.78
2022-10-29T10:52:15.591Z,22.81
2022-10-29T10:54:46.809Z,22.86
2022-10-29T10:57:13.395Z,22.71
2022-10-29T11:00:06.534Z,22.68
2022-10-29T11:02:53.776Z,22.56
2022-10-29T11:05:35.896Z,22.58
2022-10-29T11:08:14.780Z,23.00
2022-10-29T11:11:06.972Z,23.38
2022-10-29T11:13:34.474Z,23.54
2022-10-29T11:16:16.378Z,23.43
2022-10-29T11:18:56.737Z,23.43
2022-10-29T11:21:28.919Z,23.64
2022-10-29T11:24:19.096Z,23.86
2022-10-29T11:26:55.490Z,23.90
2022-10-29T11:29:31.331Z,23.77
2022-10-29T11:32:16.781Z,23.91
2022-10-29T11:34:48.533Z,23.85
2022-10-29T11:37:30.280Z,23.95
2022-10-29T11:40:06.504Z,24.02
2022-10-29T11:42:33.171Z,24.18
2022-10-29T11:45:00.620Z,24.34
2022-10-29T11:47:52.628Z,24.45
2022-10-29T11:50:26.568Z,24.28
2022-10-29T11:53:11.874Z,24.35
2022-10-29T11:56:00.957Z,24.43
2022-10-29T11:58:41.117Z,24.56
2022-10-29T12:01:44.304Z,24.23
2022-10-29T12:04:21.136Z,23.76
2022-10-29T12:07:02.295Z,23.66
2022-10-29T12:09:40.772Z,23.58
2022-10-29T12:12:31.216Z,23.52
2022-10-29T12:15:25.734Z,23.54
2022-10-29T12:18:18.932Z,23.49
2022-10-29T12:21:06.768Z,23.51
2022-10-29T12:23:51.367Z,23.58
2022-10-29T12:26:48.939Z,23.68
2022-10-29T12:29:34.302Z,23.70
2022-10-29T12:32:11.513Z,23.78
2022-10-29T12:34:47.228Z,23.91
2022-10-29T12:37:16.623Z,24.06
2022-10-29T12:39:55.769Z,24.13
2022-10-29T12:42:25.853Z,24.16
2022-10-29T12:45:11.232Z,24.17
2022-10-29T12:47:48.528Z,24.18
2022-10-29T12:50:15.327Z,24.14
2022-10-29T12:53:03.478Z,24.10
2022-10-29T12:55:31.411Z,24.13
2022-10-29T12:57:58.108Z,24.07
2022-10-29T13:00:24.716Z,24.11
2022-10-29T13:02:55.963Z,23.97
2022-10-29T13:05:35.254Z,23.84
2022-10-29T13:08:01.839Z,23.82
2022-10-29T13:10:34.501Z,23.81
2022-10-29T13:13:16.271Z,23.75
2022-10-29T13:15:42.809Z,23.87
2022-10-29T13:18:12.556Z,24.01
2022-10-29T13:20:42.853Z,24.21
2022-10-29T13:23:21.708Z,24.14
2022-10-29T13:25:53.177Z,23.94
2022-10-29T13:28:19.803Z,23.87
2022-10-29T13:30:48.247Z,23.90
2022-10-29T13:33:24.179Z,23.85
2022-10-29T13:35:53.578Z,23.68
2022-10-29T13:38:46.938Z,23.60
2022-10-29T13:41:25.167Z,23.55
2022-10-29T13:44:03.247Z,23.44
2022-10-29T13:47:01.104Z,23.35
2022-10-29T13:49:34.185Z,23.25
2022-10-29T13:52:05.501Z,23.24
2022-10-29T13:54:47.491Z,23.17
2022-10-29T13:57:30.790Z,23.12
2022-10-29T14:00:10.926Z,23.05
2022-10-29T14:02:47.304Z,22.97
2022-10-29T14:05:38.414Z,22.77
2022-10-29T14:08:20.167Z,22.70
2022-10-29T14:10:52.098Z,22.64
2022-10-29T14:13:28.039Z,22.64
2022-10-29T14:16:06.708Z,22.64
2022-10-29T14:18:41.289Z,22.52
2022-10-29T14:21:29.401Z,22.42
2022-10-29T14:24:08.306Z,22.23
2022-10-29T14:26:42.648Z,22.17
2022-10-29T14:29:25.728Z,22.14
2022-10-29T14:32:07.556Z,22.12
2022-10-29T14:34:34.200Z,22.04
2022-10-29T14:37:17.302Z,21.98
2022-10-29T14:39:58.504Z,21.87
2022-10-29T14:42:25.654Z,21.75
2022-10-29T14:44:56.002Z,21.64
2022-10-29T14:47:34.509Z,21.53
2022-10-29T14:50:06.241Z,21.47
2022-10-29T14:52:38.601Z,21.37
2022-10-29T14:55:16.785Z,21.26
2022-10-29T14:57:48.687Z,21.16
2022-10-29T15:00:30.292Z,21.14
2022-10-29T15:02:57.703Z,21.03
2022-10-29T15:05:33.618Z,20.92
2022-10-29T15:08:29.551Z,20.91
2022-10-29T15:10:58.049Z,20.87
2022-10-29T15:13:29.491Z,20.84
2022-10-29T15:16:01.011Z,20.79
2022-10-29T15:18:28.739Z,20.67
2022-10-29T15:20:56.027Z,20.51
2022-10-29T15:23:26.962Z,20.45
2022-10-29T15:26:06.523Z,20.33
2022-10-29T15:28:43.064Z,20.19
2022-10-29T15:31:46.579Z,20.06
2022-10-29T15:34:34.795Z,19.93
2022-10-29T15:37:19.586Z,19.97
2022-10-29T15:39:55.736Z,19.99
2022-10-29T15:42:28.126Z,19.94
2022-10-29T15:47:50.896Z,19.82
2022-10-29T15:50:19.279Z,19.82
2022-10-29T15:52:52.111Z,19.81
2022-10-29T15:55:27.185Z,19.76
2022-10-29T15:57:59.545Z,19.65
2022-10-29T16:00:26.520Z,19.63
2022-10-29T16:02:56.053Z,19.57
2022-10-29T16:05:22.931Z,19.49
2022-10-29T16:07:49.662Z,19.43
2022-10-29T16:10:20.391Z,19.39
2022-10-29T16:12:49.442Z,19.33
2022-10-29T16:15:19.292Z,19.33
2022-10-29T16:17:47.227Z,19.32
2022-10-29T16:20:16.643Z,19.29
2022-10-29T16:22:44.418Z,19.23
2022-10-29T16:25:27.482Z,19.22
2022-10-29T16:27:55.412Z,19.20
2022-10-29T16:30:23.521Z,19.17
2022-10-29T16:32:51.113Z,19.12
2022-10-29T16:35:26.129Z,19.11
2022-10-29T16:37:54.430Z,19.15
2022-10-29T16:40:24.005Z,19.15
2022-10-29T16:42:50.952Z,19.10
2022-10-29T16:45:25.624Z,19.11
2022-10-29T16:47:52.552Z,19.06
2022-10-29T16:50:23.604Z,19.05
2022-10-29T16:53:01.244Z,18.99
2022-10-29T16:55:29.036Z,18.92
2022-10-29T16:57:56.798Z,18.87
2022-10-29T17:00:26.101Z,18.88
2022-10-29T17:02:52.957Z,18.91
2022-10-29T17:05:19.685Z,18.91
2022-10-29T17:07:46.402Z,18.90
2022-10-29T17:10:13.085Z,18.87
2022-10-29T17:12:39.860Z,18.87
2022-10-29T17:15:07.704Z,18.84
2022-10-29T17:17:34.348Z,18.86
2022-10-29T17:20:01.076Z,18.82
2022-10-29T17:22:27.714Z,18.82
2022-10-29T17:24:54.367Z,18.80
2022-10-29T17:27:21.032Z,18.78
2022-10-29T17:29:48.051Z,18.74
2022-10-29T17:32:14.792Z,18.58
2022-10-29T17:34:41.462Z,18.40
2022-10-29T17:37:09.221Z,18.26
2022-10-29T17:39:35.898Z,18.08
2022-10-29T17:42:02.624Z,17.92
2022-10-29T17:44:29.444Z,17.76
2022-10-29T17:46:56.376Z,17.60
2022-10-29T17:49:23.133Z,17.42
2022-10-29T17:51:49.789Z,17.25
2022-10-29T17:54:17.098Z,17.16
2022-10-29T17:56:44.096Z,17.06
2022-10-29T17:59:10.775Z,16.95
2022-10-29T18:01:37.642Z,16.85
2022-10-29T18:04:06.098Z,16.80
2022-10-29T18:06:33.542Z,16.76
2022-10-29T18:09:00.877Z,16.71
2022-10-29T18:11:28.341Z,16.66
2022-10-29T18:13:56.708Z,16.62
2022-10-29T18:16:26.268Z,16.59
2022-10-29T18:19:01.981Z,16.52
2022-10-29T18:21:30.734Z,16.45
2022-10-29T18:23:57.442Z,16.42
2022-10-29T18:26:35.458Z,16.37
2022-10-29T18:29:10.213Z,16.31
2022-10-29T18:31:38.135Z,16.21
2022-10-29T18:34:07.733Z,16.16
2022-10-29T18:36:38.911Z,16.11
2022-10-29T18:39:06.556Z,16.05
2022-10-29T18:41:34.349Z,16.01
2022-10-29T18:44:01.435Z,15.97
2022-10-29T18:46:28.172Z,15.95
2022-10-29T18:48:54.908Z,15.95
2022-10-29T18:51:30.244Z,15.95
2022-10-29T18:53:58.125Z,15.92
2022-10-29T18:56:26.655Z,15.88
2022-10-29T18:58:55.654Z,15.77
2022-10-29T19:01:25.652Z,15.72
2022-10-29T19:03:57.660Z,15.63
2022-10-29T19:06:25.257Z,15.55
2022-10-29T19:08:52.371Z,15.48
2022-10-29T19:11:21.330Z,15.40
2022-10-29T19:13:58.656Z,15.30
2022-10-29T19:16:26.283Z,15.30
2022-10-29T19:18:58.371Z,15.32
2022-10-29T19:21:26.353Z,15.28
2022-10-29T19:23:55.445Z,15.24
2022-10-29T19:26:23.533Z,15.24
2022-10-29T19:28:50.425Z,15.17
2022-10-29T19:31:23.336Z,15.15
2022-10-29T19:33:52.744Z,15.13
2022-10-29T19:36:20.345Z,15.09
2022-10-29T19:38:47.716Z,15.09
2022-10-29T19:41:15.726Z,15.08
2022-10-29T19:43:43.517Z,15.11
2022-10-29T19:46:12.666Z,15.12
2022-10-29T19:48:40.594Z,15.06
2022-10-29T19:51:09.109Z,14.99
2022-10-29T19:53:38.479Z,14.93
2022-10-29T19:56:07.353Z,14.88
2022-10-29T19:58:34.057Z,14.85
2022-10-29T20:01:06.254Z,14.85
2022-10-29T20:03:33.000Z,14.78
2022-10-29T20:05:59.867Z,14.76
2022-10-29T20:08:27.429Z,14.72
2022-10-29T20:10:58.340Z,14.68
2022-10-29T20:13:25.781Z,14.69
2022-10-29T20:15:53.345Z,14.67
2022-10-29T20:18:20.660Z,14.69
2022-10-29T20:20:53.895Z,14.69
2022-10-29T20:23:20.601Z,14.67
2022-10-29T20:25:47.285Z,14.64
2022-10-29T20:28:13.941Z,14.61
2022-10-29T20:30:40.600Z,14.60
2022-10-29T20:33:07.248Z,14.59
2022-10-29T20:35:33.919Z,14.58
2022-10-29T20:38:00.802Z,14.63
2022-10-29T20:40:27.737Z,14.62
2022-10-29T20:42:54.517Z,14.67
2022-10-29T20:45:22.349Z,14.85
2022-10-29T20:47:49.252Z,15.12
2022-10-29T20:50:16.441Z,15.35
2022-10-29T20:52:48.061Z,15.47
2022-10-29T20:55:17.084Z,15.46
2022-10-29T20:57:43.737Z,15.44
2022-10-29T21:00:11.247Z,15.46
2022-10-29T21:02:39.370Z,15.51
2022-10-29T21:05:06.573Z,15.56
2022-10-29T21:07:33.470Z,15.64
2022-10-29T21:10:00.176Z,15.73
2022-10-29T21:12:27.017Z,15.88
2022-10-29T21:14:53.848Z,16.03
2022-10-29T21:17:22.383Z,16.18
2022-10-29T21:19:49.347Z,16.32
2022-10-29T21:22:19.309Z,16.42
2022-10-29T21:24:46.274Z,16.43
2022-10-29T21:27:13.023Z,16.46
2022-10-29T21:29:40.916Z,16.46
2022-10-29T21:32:11.301Z,16.40
2022-10-29T21:34:41.792Z,16.37
2022-10-29T21:37:08.779Z,16.33
2022-10-29T21:39:35.727Z,16.31
2022-10-29T21:42:02.671Z,16.26
2022-10-29T21:44:29.360Z,16.17
2022-10-29T21:46:56.050Z,16.11
2022-10-29T21:49:22.843Z,16.01
2022-10-29T21:51:50.035Z,15.94
2022-10-29T21:54:16.895Z,15.93
2022-10-29T21:56:43.671Z,15.92
2022-10-29T21:59:10.700Z,15.91
2022-10-29T22:01:40.114Z,15.81
2022-10-29T22:04:06.920Z,15.74
2022-10-29T22:06:34.382Z,15.64
2022-10-29T22:09:01.260Z,15.56
2022-10-29T22:11:28.976Z,15.52
2022-10-29T22:13:56.348Z,15.42
2022-10-29T22:16:23.445Z,15.36
2022-10-29T22:18:51.227Z,15.36
2022-10-29T22:21:24.032Z,15.39
2022-10-29T22:23:54.347Z,15.50
2022-10-29T22:26:26.818Z,15.61
2022-10-29T22:28:53.930Z,15.69
2022-10-29T22:31:22.020Z,15.79
2022-10-29T22:33:49.531Z,15.85
2022-10-29T22:36:23.814Z,15.88
2022-10-29T22:38:55.309Z,15.86
2022-10-29T22:41:23.135Z,15.78
2022-10-29T22:43:49.860Z,15.76
2022-10-29T22:46:18.284Z,15.74
2022-10-29T22:48:45.687Z,15.69
2022-10-29T22:51:22.757Z,15.49
2022-10-29T22:53:51.098Z,15.30
2022-10-29T22:56:21.337Z,15.17
2022-10-29T22:58:48.717Z,15.06
2022-10-29T23:01:18.851Z,15.00
2022-10-29T23:03:45.914Z,14.94
2022-10-29T23:06:16.836Z,14.97
2022-10-29T23:08:44.714Z,15.01
2022-10-29T23:11:19.409Z,15.01
2022-10-29T23:13:56.420Z,14.86
2022-10-29T23:16:30.862Z,14.68
2022-10-29T23:19:01.627Z,14.53
2022-10-29T23:21:29.153Z,14.43
2022-10-29T23:23:56.055Z,14.38
2022-10-29T23:26:24.799Z,14.41
2022-10-29T23:28:51.826Z,14.43
2022-10-29T23:31:23.527Z,14.37
2022-10-29T23:33:52.306Z,14.36
2022-10-29T23:36:20.653Z,14.34
2022-10-29T23:38:47.842Z,14.33
2022-10-29T23:41:14.706Z,14.32
2022-10-29T23:43:41.416Z,14.30
2022-10-29T23:46:08.075Z,14.26
2022-10-29T23:48:34.802Z,14.28
2022-10-29T23:51:01.447Z,14.21
2022-10-29T23:53:28.569Z,14.22
2022-10-29T23:55:55.255Z,14.21
2022-10-29T23:58:21.908Z,14.21
